Hsc Superjet — IINO — position and weather

sailwx.info

Track history (hours):
 
Tides and Currents Weather Stations Pressure Air Temp Water Temp Dewpoint Dewpoint Depression Visibility Wind Speed Wind Dir Waves Ship Positions

Hsc Superjet

Last reported at 2014-Sep-15 15:23 UTC. Time now 2014-Sep-17 07:32 UTC.
Position N 40°50' E 014°17'.

Length 44 m; draft 1.4 m.

Type: High speed craft. MMSI: 247540000.

Date/timePositionNaut miles runAvg speedWind from/ knotsBaromVisibWave heightAir tempDewpointWater temp
2014-Sep-15 15:23N 40°50' E 014°17'1720.2
2014-Sep-15 14:33N 40°33' E 014°14'1 1.3
2014-Sep-15 13:32N 40°33' E 014°16'1 0.4
2014-Sep-15 10:33N 40°33' E 014°14'13 5.8
2014-Sep-15 08:18N 40°46' E 014°17'1316.5
2014-Sep-15 07:31N 40°34' E 014°15'10 0.7
2014-Sep-14 16:33N 40°43' E 014°17'10 9.8
2014-Sep-14 15:33N 40°34' E 014°15'1714.4
2014-Sep-14 14:24N 40°50' E 014°16'1714.5
2014-Sep-14 13:14N 40°33' E 014°14'0 0.0
2014-Sep-14 12:33N 40°33' E 014°14'0 0.0
2014-Sep-14 11:31N 40°33' E 014°14'0 0.0
2014-Sep-14 10:33N 40°33' E 014°14'0 0.0
2014-Sep-14 09:32N 40°33' E 014°14'0 0.2
2014-Sep-14 08:28N 40°33' E 014°15'16 1.0
2014-Sep-13 15:24N 40°50' E 014°17'1719.7
2014-Sep-13 14:33N 40°33' E 014°14'0 0.0
2014-Sep-13 13:32N 40°33' E 014°14'0 0.0
2014-Sep-13 12:33N 40°33' E 014°14'0 0.0
2014-Sep-13 11:33N 40°33' E 014°14'3 2.9
2014-Sep-13 10:33N 40°36' E 014°16'1411.6
2014-Sep-13 09:20N 40°50' E 014°15'2 0.2
2014-Sep-12 18:33N 40°48' E 014°18'10 9.6
2014-Sep-12 17:31N 40°39' E 014°16'2 0.9
2014-Sep-12 15:31N 40°40' E 014°16'7 7.2
2014-Sep-12 14:33N 40°33' E 014°15'16 7.5
2014-Sep-12 12:24N 40°49' E 014°17'1614.9
2014-Sep-12 11:19N 40°33' E 014°14'0 0.0
2014-Sep-12 10:33N 40°33' E 014°14'16 0.9
2014-Sep-11 16:31N 40°49' E 014°17'1615.5
2014-Sep-11 15:30N 40°33' E 014°14'1511.6
2014-Sep-11 14:11N 40°49' E 014°17'1523.4
2014-Sep-11 13:33N 40°34' E 014°15'1 0.8
2014-Sep-11 12:32N 40°33' E 014°14'0 0.0
2014-Sep-11 11:32N 40°33' E 014°14'1410.7
2014-Sep-11 10:12N 40°48' E 014°17'1418.9
2014-Sep-11 09:27N 40°33' E 014°14'0 0.0
2014-Sep-11 08:29N 40°33' E 014°14'0 0.0
2014-Sep-10 14:06N 40°33' E 014°14'2 4.4
2014-Sep-10 13:33N 40°36' E 014°15'1 0.6
2014-Sep-10 12:33N 40°35' E 014°14'1 0.9
2014-Sep-10 11:33N 40°34' E 014°15'1 1.0
2014-Sep-10 10:33N 40°33' E 014°14'1 0.0
2014-Sep-09 13:31N 40°33' E 014°16'0 0.0
2014-Sep-09 12:33N 40°33' E 014°16'0 0.1
2014-Sep-09 11:28N 40°33' E 014°16'1 0.0
2014-Sep-07 13:06N 40°33' E 014°14'0 0.0
2014-Sep-07 12:33N 40°33' E 014°14'2 2.2
2014-Sep-07 11:28N 40°36' E 014°16'11 9.1
2014-Sep-07 10:15N 40°47' E 014°17'1319.0
2014-Sep-07 09:33N 40°33' E 014°14'0 0.0
2014-Sep-07 08:33N 40°33' E 014°14'  
Track history (hours):
 
Tides and Currents Weather Stations Pressure Air Temp Water Temp Dewpoint Dewpoint Depression Visibility Wind Speed Wind Dir Waves Ship Positions

Hsc Superjet

Last reported at 2014-Sep-15 15:23 UTC. Time now 2014-Sep-17 07:32 UTC.
Position N 40°50' E 014°17'.

Length 44 m; draft 1.4 m.

Type: High speed craft. MMSI: 247540000.

Date/timePositionNaut miles runAvg speedWind from/ knotsBaromVisibWave heightAir tempDewpointWater temp
2014-Sep-15 15:23N 40°50' E 014°17'1720.2
2014-Sep-15 14:33N 40°33' E 014°14'1 1.3
2014-Sep-15 13:32N 40°33' E 014°16'1 0.4
2014-Sep-15 10:33N 40°33' E 014°14'13 5.8
2014-Sep-15 08:18N 40°46' E 014°17'1316.5
2014-Sep-15 07:31N 40°34' E 014°15'10 0.7
2014-Sep-14 16:33N 40°43' E 014°17'10 9.8
2014-Sep-14 15:33N 40°34' E 014°15'1714.4
2014-Sep-14 14:24N 40°50' E 014°16'1714.5
2014-Sep-14 13:14N 40°33' E 014°14'0 0.0
2014-Sep-14 12:33N 40°33' E 014°14'0 0.0
2014-Sep-14 11:31N 40°33' E 014°14'0 0.0
2014-Sep-14 10:33N 40°33' E 014°14'0 0.0
2014-Sep-14 09:32N 40°33' E 014°14'0 0.2
2014-Sep-14 08:28N 40°33' E 014°15'16 1.0
2014-Sep-13 15:24N 40°50' E 014°17'1719.7
2014-Sep-13 14:33N 40°33' E 014°14'0 0.0
2014-Sep-13 13:32N 40°33' E 014°14'0 0.0
2014-Sep-13 12:33N 40°33' E 014°14'0 0.0
2014-Sep-13 11:33N 40°33' E 014°14'3 2.9
2014-Sep-13 10:33N 40°36' E 014°16'1411.6
2014-Sep-13 09:20N 40°50' E 014°15'2 0.2
2014-Sep-12 18:33N 40°48' E 014°18'10 9.6
2014-Sep-12 17:31N 40°39' E 014°16'2 0.9
2014-Sep-12 15:31N 40°40' E 014°16'7 7.2
2014-Sep-12 14:33N 40°33' E 014°15'16 7.5
2014-Sep-12 12:24N 40°49' E 014°17'1614.9
2014-Sep-12 11:19N 40°33' E 014°14'0 0.0
2014-Sep-12 10:33N 40°33' E 014°14'16 0.9
2014-Sep-11 16:31N 40°49' E 014°17'1615.5
2014-Sep-11 15:30N 40°33' E 014°14'1511.6
2014-Sep-11 14:11N 40°49' E 014°17'1523.4
2014-Sep-11 13:33N 40°34' E 014°15'1 0.8
2014-Sep-11 12:32N 40°33' E 014°14'0 0.0
2014-Sep-11 11:32N 40°33' E 014°14'1410.7
2014-Sep-11 10:12N 40°48' E 014°17'1418.9
2014-Sep-11 09:27N 40°33' E 014°14'0 0.0
2014-Sep-11 08:29N 40°33' E 014°14'0 0.0
2014-Sep-10 14:06N 40°33' E 014°14'2 4.4
2014-Sep-10 13:33N 40°36' E 014°15'1 0.6
2014-Sep-10 12:33N 40°35' E 014°14'1 0.9
2014-Sep-10 11:33N 40°34' E 014°15'1 1.0
2014-Sep-10 10:33N 40°33' E 014°14'1 0.0
2014-Sep-09 13:31N 40°33' E 014°16'0 0.0
2014-Sep-09 12:33N 40°33' E 014°16'0 0.1
2014-Sep-09 11:28N 40°33' E 014°16'1 0.0
2014-Sep-07 13:06N 40°33' E 014°14'0 0.0
2014-Sep-07 12:33N 40°33' E 014°14'2 2.2
2014-Sep-07 11:28N 40°36' E 014°16'11 9.1
2014-Sep-07 10:15N 40°47' E 014°17'1319.0
2014-Sep-07 09:33N 40°33' E 014°14'0 0.0
2014-Sep-07 08:33N 40°33' E 014°14'  

Dump ship's entire track history